Ilorin International Airport

DNIL · Kwara, Nigeria

Storia di METAR DNIL · Ilorin International Airport

Di seguito sono riportati i METAR degli ultimi giorni. Seleziona un anno per sfogliare i METAR più vecchi, dall'anno 2007 in poi.

8 dicembre 2022

Tempo Codice Tempo metereologico Temp. Vista Base nuvolosa Vento METAR/SPECI
05:00
I
22 °C 3 km - Var 000° 0 kt METAR DNIL 080400Z 00000KT 3000 HZ NSC 22/19 Q1011
00:00
I
25 °C 3 km - Var 000° 0 kt METAR DNIL 072300Z 00000KT 3000 HZ NSC 25/15 Q1012

7 dicembre 2022

Tempo Codice Tempo metereologico Temp. Vista Base nuvolosa Vento METAR/SPECI
23:00
I
26 °C 3 km - Var 000° 0 kt METAR DNIL 072200Z 00000KT 3000 HZ NSC 26/15 Q1013
21:00
I
28 °C 3 km - 110° 110° 3 kt METAR DNIL 072000Z 11003KT 3000 HZ NSC 28/13 Q1012
20:00
I
28 °C 3 km - 010° 010° 3 kt METAR DNIL 071900Z 01003KT 3000 HZ NSC 28/13 Q1011
18:00
M
32 °C 5 km - 310° 310° 5 kt METAR DNIL 071700Z 31005KT 5000 HZ NSC 32/13 Q1010
17:00
M
34 °C 5 km - 050° 050° 4 kt METAR DNIL 071600Z 05004KT 5000 HZ NSC 34/16 Q1009
15:00
I
35 °C 3 km - 140° 140° 3 kt METAR DNIL 071400Z 14003KT 3000 NSC 35/14 Q1009
14:00
I
34 °C 3 km - 160° 160° 4 kt METAR DNIL 071300Z 16004KT 3000 NSC 34/13 Q1010
11:00
V
29 °C 8 km - 320° 320° 3 kt METAR DNIL 071000Z 32003KT 8000 NSC 29/18 Q1013
09:00
V
24 °C 10 km+ - 240° 240° 4 kt METAR DNIL 070800Z 24004KT CAVOK 24/21 Q1014
08:00
V
21 °C 10 km+ - Var 000° 0 kt METAR DNIL 070700Z 00000KT CAVOK 21/15 Q1012
06:00
V
21 °C 10 km+ - Var 000° 0 kt METAR DNIL 070500Z 00000KT CAVOK 21/18 Q1011
05:00
V
21 °C 10 km+ - 070° 070° 3 kt METAR DNIL 070400Z 07003KT CAVOK 21/18 Q1011
03:00
V
23 °C 10 km+ - Var 000° 0 kt METAR DNIL 070200Z 00000KT CAVOK 23/16 Q1011
00:00
V
25 °C 10 km+ - 160° 160° 4 kt METAR DNIL 062300Z 16004KT CAVOK 25/16 Q1012

6 dicembre 2022

Tempo Codice Tempo metereologico Temp. Vista Base nuvolosa Vento METAR/SPECI
23:00
V
25 °C 10 km+ - 150° 150° 4 kt METAR DNIL 062200Z 15004KT CAVOK 25/15 Q1012
21:00
V
27 °C 10 km+ - 080° 080° 4 kt METAR DNIL 062000Z 08004KT CAVOK 27/14 Q1012
20:00
V
29 °C 10 km+ - 030° 030° 5 kt METAR DNIL 061900Z 03005KT CAVOK 29/12 Q1011
18:00
V
32 °C 10 km+ - 010° 010° 4 kt METAR DNIL 061700Z 01004KT CAVOK 32/08 Q1009
17:00
V
33 °C 10 km+ - 360° 360° 4 kt METAR DNIL 061600Z 36004KT CAVOK 33/09 Q1009
15:00
V
34 °C 10 km+ - 140° 140° 4 kt METAR DNIL 061400Z 14004KT CAVOK 34/09 Q1009
14:00
V
34 °C 10 km+ - 020° 020° 3 kt METAR DNIL 061300Z 02003KT CAVOK 34/09 Q1010
12:00
V
32 °C 10 km+ - 330° 330° 4 kt METAR DNIL 061100Z 33004KT CAVOK 32/14 Q1012
11:00
V
30 °C 10 km+ - 310° 310° 4 kt METAR DNIL 061000Z 31004KT CAVOK 30/18 Q1013
09:00
M
24 °C 7 km - Var 000° 0 kt METAR DNIL 060800Z 00000KT 7000 FEW010 24/22 Q1014
08:00
M
24 °C 5 km - 200° 200° 4 kt METAR DNIL 060700Z 20004KT 5000 BR SCT010 24/22 Q1013
05:00
V
22 °C 10 km+ - 110° 110° 3 kt METAR DNIL 060400Z 11003KT CAVOK 22/19 Q1012
00:00
V
25 °C 10 km+ - 150° 150° 6 kt METAR DNIL 052300Z 15006KT CAVOK 25/16 Q1012

5 dicembre 2022

Tempo Codice Tempo metereologico Temp. Vista Base nuvolosa Vento METAR/SPECI
23:00
V
26 °C 10 km+ - Var 000° 0 kt METAR DNIL 052200Z 00000KT CAVOK 26/17 Q1012
21:00
V
29 °C 10 km+ - 140° 140° 4 kt METAR DNIL 052000Z 14004KT CAVOK 29/17 Q1012
20:00
V
29 °C 10 km+ - 020° 020° 3 kt METAR DNIL 051900Z 02003KT CAVOK 29/17 Q1011
18:00
V
34 °C 10 km+ - 030° 030° 7 kt METAR DNIL 051700Z 03007KT CAVOK 34/12 Q1010
17:00
V
35 °C 10 km+ - 060° 060° 10 kt METAR DNIL 051600Z 06010KT 9999 FEW014 35/12 Q1009
15:00
V
36 °C 10 km+ - 050° 050° 12 kt METAR DNIL 051400Z 05012KT 9999 SCT014 36/14 Q1009
14:00
V
36 °C 10 km+ - 060° 060° 9 kt METAR DNIL 051300Z 06009KT 9999 SCT014 36/16 Q1010
12:00
V
33 °C 10 km+ - 170° 170° 3 kt METAR DNIL 051100Z 17003KT CAVOK 33/22 Q1013

Noi e le terze parti seguiamo il tuo comportamento su internet con i cookie. Se continui, riteniamo che tu sia d'accordo con la nostra Politica sui cookie.